createdAt,value
2016-09-17T00:00:16.458Z,97.33
2016-09-17T00:01:16.461Z,97.42
2016-09-17T00:02:16.540Z,97.04
2016-09-17T00:03:16.495Z,97.24
2016-09-17T00:04:16.545Z,97.61
2016-09-17T00:05:16.465Z,98.96
2016-09-17T00:06:16.548Z,98.58
2016-09-17T00:07:16.478Z,97.71
2016-09-17T00:08:16.475Z,98.29
2016-09-17T00:09:16.490Z,97.91
2016-09-17T00:10:16.557Z,98.1
2016-09-17T00:11:16.514Z,97.47
2016-09-17T00:12:16.534Z,97.71
2016-09-17T00:13:16.501Z,97.28
2016-09-17T00:14:16.573Z,98
2016-09-17T00:15:16.547Z,98.43
2016-09-17T00:16:16.587Z,97.95
2016-09-17T00:17:16.530Z,97.95
2016-09-17T00:18:16.582Z,97.91
2016-09-17T00:19:16.589Z,98.82
2016-09-17T00:20:16.581Z,99.15
2016-09-17T00:21:16.598Z,98.58
2016-09-17T00:22:16.587Z,98.14
2016-09-17T00:23:16.624Z,99.29
2016-09-17T00:24:16.515Z,98.67
2016-09-17T00:25:16.529Z,98.58
2016-09-17T00:26:16.562Z,98.48
2016-09-17T00:27:16.555Z,98.19
2016-09-17T00:28:16.614Z,99.01
2016-09-17T00:29:16.622Z,98.91
2016-09-17T00:30:16.584Z,98.72
2016-09-17T00:31:16.534Z,99.15
2016-09-17T00:32:16.541Z,99.01
2016-09-17T00:33:16.621Z,99.77
2016-09-17T00:34:16.638Z,99.39
2016-09-17T00:35:16.643Z,99.99
2016-09-17T00:36:16.599Z,99.96
2016-09-17T00:37:16.590Z,99.99
2016-09-17T00:38:16.636Z,99.99
2016-09-17T00:39:16.565Z,99.99
2016-09-17T00:40:16.654Z,99.99
2016-09-17T00:41:16.573Z,99.99
2016-09-17T00:42:16.650Z,99.99
2016-09-17T00:43:16.646Z,99.99
2016-09-17T00:44:16.605Z,99.99
2016-09-17T00:45:16.652Z,99.99
2016-09-17T00:46:16.589Z,99.99
2016-09-17T00:47:16.589Z,99.99
2016-09-17T00:48:16.617Z,99.99
2016-09-17T00:49:16.588Z,99.99
2016-09-17T00:50:16.630Z,99.99
2016-09-17T00:51:16.678Z,99.99
2016-09-17T00:52:16.629Z,99.99
2016-09-17T00:53:16.601Z,99.99
2016-09-17T00:54:16.709Z,99.99
2016-09-17T00:55:16.611Z,99.99
2016-09-17T00:56:16.607Z,99.99
2016-09-17T00:57:16.617Z,99.99
2016-09-17T00:58:16.696Z,99.99
2016-09-17T00:59:16.670Z,99.99
2016-09-17T01:00:16.623Z,99.99
2016-09-17T01:01:16.710Z,99.99
2016-09-17T01:02:16.660Z,99.99
2016-09-17T01:03:16.711Z,99.99
2016-09-17T01:04:16.709Z,99.99
2016-09-17T01:05:16.670Z,99.99
2016-09-17T01:06:16.683Z,99.99
2016-09-17T01:07:16.723Z,99.99
2016-09-17T01:08:16.723Z,99.99
2016-09-17T01:09:16.728Z,99.99
2016-09-17T01:10:16.728Z,99.99
2016-09-17T01:11:16.686Z,99.99
2016-09-17T01:12:16.656Z,99.99
2016-09-17T01:13:16.654Z,99.99
2016-09-17T01:14:16.743Z,99.99
2016-09-17T01:15:16.744Z,99.99
2016-09-17T01:16:16.717Z,99.99
2016-09-17T01:17:16.708Z,99.99
2016-09-17T01:18:16.755Z,99.99
2016-09-17T01:19:16.682Z,99.99
2016-09-17T01:20:16.765Z,99.99
2016-09-17T01:21:16.683Z,99.99
2016-09-17T01:22:16.688Z,99.99
2016-09-17T01:23:16.725Z,99.99
2016-09-17T01:24:16.784Z,99.99
2016-09-17T01:25:16.697Z,99.99
2016-09-17T01:26:16.781Z,99.99
2016-09-17T01:27:16.786Z,99.99
2016-09-17T01:28:16.779Z,99.99
2016-09-17T01:29:16.796Z,99.99
2016-09-17T01:30:16.787Z,99.99
2016-09-17T01:31:16.713Z,99.99
2016-09-17T01:32:16.755Z,99.99
2016-09-17T01:33:16.723Z,99.99
2016-09-17T01:34:16.803Z,99.99
2016-09-17T01:35:16.754Z,99.99
2016-09-17T01:36:16.817Z,99.99
2016-09-17T01:37:16.812Z,99.99
2016-09-17T01:38:16.806Z,99.99
2016-09-17T01:39:16.741Z,99.99
2016-09-17T01:40:16.826Z,99.99
2016-09-17T01:41:16.745Z,99.99
2016-09-17T01:42:16.788Z,99.99
2016-09-17T01:43:16.749Z,99.99
2016-09-17T01:44:16.817Z,99.99
2016-09-17T01:45:16.879Z,99.99
2016-09-17T01:46:16.841Z,99.99
2016-09-17T01:47:16.766Z,99.99
2016-09-17T01:48:16.846Z,99.99
2016-09-17T01:49:16.839Z,99.99
2016-09-17T01:50:16.768Z,99.99
2016-09-17T01:51:16.769Z,99.99
2016-09-17T01:52:16.852Z,99.99
2016-09-17T01:53:16.852Z,99.99
2016-09-17T01:54:16.853Z,99.99
2016-09-17T01:55:16.826Z,99.99
2016-09-17T01:56:16.827Z,99.99
2016-09-17T01:57:16.867Z,99.99
2016-09-17T01:58:16.864Z,99.99
2016-09-17T01:59:16.872Z,99.99
2016-09-17T02:00:16.804Z,99.99
2016-09-17T02:01:16.870Z,99.99
2016-09-17T02:02:16.894Z,99.99
2016-09-17T02:03:16.883Z,99.99
2016-09-17T02:04:16.805Z,99.99
2016-09-17T02:05:16.887Z,99.99
2016-09-17T02:06:16.897Z,99.99
2016-09-17T02:07:16.889Z,99.99
2016-09-17T02:08:16.906Z,99.99
2016-09-17T02:09:16.908Z,99.99
2016-09-17T02:10:16.866Z,99.99
2016-09-17T02:11:16.839Z,99.99
2016-09-17T02:12:16.903Z,99.99
2016-09-17T02:13:16.838Z,99.99
2016-09-17T02:14:16.917Z,99.99
2016-09-17T02:15:16.916Z,99.99
2016-09-17T02:16:16.921Z,99.99
2016-09-17T02:17:16.851Z,99.99
2016-09-17T02:18:16.932Z,99.99
2016-09-17T02:19:16.933Z,99.99
2016-09-17T02:20:16.929Z,99.99
2016-09-17T02:21:16.869Z,99.99
2016-09-17T02:22:16.930Z,99.99
2016-09-17T02:23:16.940Z,99.99
2016-09-17T02:24:16.907Z,99.99
2016-09-17T02:25:16.875Z,99.99
2016-09-17T02:26:16.946Z,99.99
2016-09-17T02:27:16.955Z,99.99
2016-09-17T02:28:16.915Z,99.99
2016-09-17T02:29:16.953Z,99.99
2016-09-17T02:30:16.927Z,99.99
2016-09-17T02:31:16.967Z,99.99
2016-09-17T02:32:16.975Z,99.99
2016-09-17T02:33:16.921Z,99.99
2016-09-17T02:34:16.969Z,99.99
2016-09-17T02:35:16.978Z,99.99
2016-09-17T02:36:16.984Z,99.99
2016-09-17T02:37:16.908Z,99.99
2016-09-17T02:38:16.933Z,99.99
2016-09-17T02:39:16.911Z,99.99
2016-09-17T02:40:16.956Z,99.99
2016-09-17T02:41:17.000Z,99.99
2016-09-17T02:42:16.993Z,99.99
2016-09-17T02:43:17.002Z,99.99
2016-09-17T02:44:16.956Z,99.99
2016-09-17T02:45:16.927Z,99.99
2016-09-17T02:46:16.932Z,99.99
2016-09-17T02:47:16.967Z,99.99
2016-09-17T02:48:17.019Z,99.99
2016-09-17T02:49:16.985Z,99.99
2016-09-17T02:50:16.978Z,99.99
2016-09-17T02:51:16.986Z,99.99
2016-09-17T02:52:16.993Z,99.99
2016-09-17T02:53:16.942Z,99.99
2016-09-17T02:54:16.985Z,99.99
2016-09-17T02:55:17.040Z,99.99
2016-09-17T02:56:16.993Z,99.99
2016-09-17T02:57:17.040Z,99.99
2016-09-17T02:58:17.044Z,99.99
2016-09-17T02:59:17.039Z,99.99
2016-09-17T03:00:17.005Z,99.99
2016-09-17T03:01:16.979Z,99.99
2016-09-17T03:02:16.973Z,99.99
2016-09-17T03:03:17.051Z,99.99
2016-09-17T03:04:17.020Z,99.99
2016-09-17T03:05:17.021Z,99.99
2016-09-17T03:06:17.025Z,99.99
2016-09-17T03:07:17.070Z,99.99
2016-09-17T03:08:17.028Z,99.99
2016-09-17T03:09:16.994Z,99.99
2016-09-17T03:10:17.041Z,99.99
2016-09-17T03:11:17.040Z,99.99
2016-09-17T03:12:17.081Z,99.99
2016-09-17T03:13:17.082Z,99.99
2016-09-17T03:14:17.079Z,99.99
2016-09-17T03:15:17.063Z,99.99
2016-09-17T03:16:17.020Z,99.99
2016-09-17T03:17:17.045Z,99.99
2016-09-17T03:18:17.095Z,99.99
2016-09-17T03:19:17.017Z,99.99
2016-09-17T03:20:17.027Z,99.99
2016-09-17T03:21:17.101Z,99.99
2016-09-17T03:22:17.103Z,99.99
2016-09-17T03:23:17.080Z,99.99
2016-09-17T03:24:17.117Z,99.99
2016-09-17T03:25:17.122Z,99.99
2016-09-17T03:26:17.068Z,99.99
2016-09-17T03:27:17.160Z,99.99
2016-09-17T03:28:17.128Z,99.99
2016-09-17T03:29:17.058Z,99.99
2016-09-17T03:30:17.089Z,99.99
2016-09-17T03:31:17.096Z,99.99
2016-09-17T03:32:17.064Z,99.99
2016-09-17T03:33:17.141Z,99.99
2016-09-17T03:34:17.157Z,99.99
2016-09-17T03:35:17.156Z,99.99
2016-09-17T03:36:17.101Z,99.99
2016-09-17T03:37:17.077Z,99.99
2016-09-17T03:38:17.151Z,99.99
2016-09-17T03:39:17.156Z,99.99
2016-09-17T03:40:17.158Z,99.99
2016-09-17T03:41:17.089Z,99.99
2016-09-17T03:42:17.124Z,99.99
2016-09-17T03:43:17.171Z,99.99
2016-09-17T03:44:17.177Z,99.99
2016-09-17T03:45:17.169Z,99.99
2016-09-17T03:46:17.256Z,99.99
2016-09-17T03:47:17.184Z,99.99
2016-09-17T03:48:17.176Z,99.99
2016-09-17T03:49:17.145Z,99.99
2016-09-17T03:50:17.158Z,99.99
2016-09-17T03:51:17.188Z,99.99
2016-09-17T03:52:17.197Z,99.99
2016-09-17T03:53:17.121Z,99.99
2016-09-17T03:54:17.203Z,99.99
2016-09-17T03:55:17.122Z,99.99
2016-09-17T03:56:17.205Z,99.99
2016-09-17T03:57:17.125Z,99.99
2016-09-17T03:58:17.209Z,99.99
2016-09-17T03:59:17.210Z,99.99
2016-09-17T04:00:17.178Z,99.99
2016-09-17T04:01:17.219Z,99.99
2016-09-17T04:02:17.151Z,99.99
2016-09-17T04:03:17.187Z,99.99
2016-09-17T04:04:17.223Z,99.99
2016-09-17T04:05:17.236Z,99.99
2016-09-17T04:06:17.251Z,99.99
2016-09-17T04:07:17.201Z,99.99
2016-09-17T04:08:17.236Z,99.99
2016-09-17T04:09:17.244Z,99.99
2016-09-17T04:10:17.197Z,99.99
2016-09-17T04:11:17.174Z,99.99
2016-09-17T04:12:17.204Z,99.99
2016-09-17T04:13:17.254Z,99.99
2016-09-17T04:14:17.252Z,99.99
2016-09-17T04:15:17.183Z,99.99
2016-09-17T04:16:17.222Z,99.99
2016-09-17T04:17:17.187Z,99.99
2016-09-17T04:18:17.232Z,99.99
2016-09-17T04:19:17.264Z,99.99
2016-09-17T04:20:17.200Z,99.99
2016-09-17T04:21:17.193Z,99.99
2016-09-17T04:22:17.272Z,99.99
2016-09-17T04:23:17.283Z,99.99
2016-09-17T04:24:17.287Z,99.99
2016-09-17T04:25:17.288Z,99.99
2016-09-17T04:26:17.287Z,99.99
2016-09-17T04:27:17.220Z,99.99
2016-09-17T04:28:17.255Z,99.99
2016-09-17T04:29:17.295Z,99.99
2016-09-17T04:30:17.266Z,99.99
2016-09-17T04:31:17.296Z,99.99
2016-09-17T04:32:17.309Z,99.99
2016-09-17T04:33:17.224Z,99.99
2016-09-17T04:34:17.316Z,99.99
2016-09-17T04:35:17.313Z,99.99
2016-09-17T04:36:17.272Z,99.99
2016-09-17T04:37:17.268Z,99.99
2016-09-17T04:38:17.271Z,99.99
2016-09-17T04:39:17.323Z,99.99
2016-09-17T04:40:17.334Z,99.99
2016-09-17T04:41:17.325Z,99.99
2016-09-17T04:42:17.341Z,99.99
2016-09-17T04:43:17.267Z,99.99
2016-09-17T04:44:17.347Z,99.99
2016-09-17T04:45:17.301Z,99.99
2016-09-17T04:46:17.306Z,99.99
2016-09-17T04:47:17.274Z,99.99
2016-09-17T04:48:17.348Z,99.99
2016-09-17T04:49:17.350Z,99.99
2016-09-17T04:50:17.280Z,99.99
2016-09-17T04:51:17.361Z,99.99
2016-09-17T04:52:17.314Z,99.99
2016-09-17T04:53:17.376Z,99.99
2016-09-17T04:54:17.383Z,99.99
2016-09-17T04:55:17.372Z,99.99
2016-09-17T04:56:17.303Z,99.99
2016-09-17T04:57:17.385Z,99.99
2016-09-17T04:58:17.344Z,99.99
2016-09-17T04:59:17.382Z,99.99
2016-09-17T05:00:17.353Z,99.99
2016-09-17T05:01:17.392Z,99.99
2016-09-17T05:02:17.331Z,99.99
2016-09-17T05:03:17.342Z,99.99
2016-09-17T05:04:17.353Z,99.99
2016-09-17T05:05:17.370Z,99.99
2016-09-17T05:06:17.368Z,99.99
2016-09-17T05:07:17.402Z,99.99
2016-09-17T05:08:17.362Z,99.99
2016-09-17T05:09:17.372Z,99.99
2016-09-17T05:10:17.407Z,99.99
2016-09-17T05:11:17.381Z,99.99
2016-09-17T05:12:17.423Z,99.99
2016-09-17T05:13:17.377Z,99.99
2016-09-17T05:14:17.429Z,99.99
2016-09-17T05:15:17.430Z,99.99
2016-09-17T05:16:17.438Z,99.99
2016-09-17T05:17:17.346Z,99.99
2016-09-17T05:18:17.407Z,99.99
2016-09-17T05:19:17.439Z,99.99
2016-09-17T05:20:17.440Z,99.99
2016-09-17T05:21:17.367Z,99.99
2016-09-17T05:22:17.377Z,99.99
2016-09-17T05:23:17.373Z,99.99
2016-09-17T05:24:17.458Z,99.99
2016-09-17T05:25:17.485Z,99.99
2016-09-17T05:26:17.421Z,99.99
2016-09-17T05:27:17.397Z,99.99
2016-09-17T05:28:17.452Z,99.99
2016-09-17T05:29:17.467Z,99.99
2016-09-17T05:30:17.438Z,99.99
2016-09-17T05:31:17.404Z,99.99
2016-09-17T05:32:17.475Z,99.99
2016-09-17T05:33:17.487Z,99.99
2016-09-17T05:34:17.405Z,99.99
2016-09-17T05:35:17.476Z,99.99
2016-09-17T05:36:17.411Z,99.99
2016-09-17T05:37:17.449Z,99.99
2016-09-17T05:38:17.481Z,99.99
2016-09-17T05:39:17.502Z,99.99
2016-09-17T05:40:17.501Z,99.99
2016-09-17T05:41:17.509Z,99.99
2016-09-17T05:42:17.507Z,99.99
2016-09-17T05:43:17.425Z,99.99
2016-09-17T05:44:17.471Z,99.99
2016-09-17T05:45:17.514Z,99.99
2016-09-17T05:46:17.439Z,99.99
2016-09-17T05:47:17.533Z,99.99
2016-09-17T05:48:17.441Z,99.99
2016-09-17T05:49:17.520Z,99.99
2016-09-17T05:50:17.528Z,99.99
2016-09-17T05:51:17.455Z,99.99
2016-09-17T05:52:17.499Z,99.99
2016-09-17T05:53:17.535Z,99.99
2016-09-17T05:54:17.462Z,99.99
2016-09-17T05:55:17.498Z,99.99
2016-09-17T05:56:17.552Z,99.99
2016-09-17T05:57:17.508Z,99.99
2016-09-17T05:58:17.525Z,99.99
2016-09-17T05:59:17.556Z,99.99
2016-09-17T06:00:17.512Z,99.99
2016-09-17T06:01:17.523Z,99.99
2016-09-17T06:02:17.494Z,99.99
2016-09-17T06:03:17.500Z,99.99
2016-09-17T06:04:17.528Z,99.99
2016-09-17T06:05:17.565Z,99.99
2016-09-17T06:06:17.563Z,99.99
2016-09-17T06:07:17.566Z,99.99
2016-09-17T06:08:17.506Z,99.99
2016-09-17T06:09:17.500Z,99.99
2016-09-17T06:10:17.531Z,99.99
2016-09-17T06:11:17.546Z,99.99
2016-09-17T06:12:17.546Z,99.99
2016-09-17T06:13:17.509Z,99.99
2016-09-17T06:14:17.553Z,99.99
2016-09-17T06:15:17.587Z,99.99
2016-09-17T06:16:17.622Z,99.99
2016-09-17T06:17:17.601Z,99.99
2016-09-17T06:18:17.613Z,99.99
2016-09-17T06:19:17.622Z,99.99
2016-09-17T06:20:17.611Z,99.99
2016-09-17T06:21:17.605Z,99.99
2016-09-17T06:22:17.628Z,99.99
2016-09-17T06:23:17.536Z,99.99
2016-09-17T06:24:17.635Z,99.99
2016-09-17T06:25:17.626Z,99.99
2016-09-17T06:26:17.590Z,99.99
2016-09-17T06:27:17.639Z,99.99
2016-09-17T06:28:17.563Z,99.99
2016-09-17T06:29:17.635Z,99.99
2016-09-17T06:30:17.561Z,99.99
2016-09-17T06:31:17.655Z,99.99
2016-09-17T06:32:17.564Z,99.99
2016-09-17T06:33:17.566Z,99.99
2016-09-17T06:34:17.655Z,99.99
2016-09-17T06:35:17.643Z,99.99
2016-09-17T06:36:17.615Z,99.99
2016-09-17T06:37:17.663Z,99.99
2016-09-17T06:38:17.655Z,99.99
2016-09-17T06:39:17.653Z,99.99
2016-09-17T06:40:17.661Z,99.99
2016-09-17T06:41:17.669Z,99.99
2016-09-17T06:42:17.677Z,99.99
2016-09-17T06:43:17.598Z,99.99
2016-09-17T06:44:17.632Z,99.99
2016-09-17T06:45:17.677Z,99.99
2016-09-17T06:46:17.678Z,99.99
2016-09-17T06:47:17.791Z,99.99
2016-09-17T06:48:17.673Z,99.99
2016-09-17T06:49:17.627Z,99.99
2016-09-17T06:50:17.702Z,99.99
2016-09-17T06:51:17.628Z,99.99
2016-09-17T06:52:17.656Z,99.99
2016-09-17T06:53:17.699Z,99.99
2016-09-17T06:54:17.713Z,99.99
2016-09-17T06:55:17.669Z,99.99
2016-09-17T06:56:17.675Z,99.99
2016-09-17T06:57:17.669Z,99.99
2016-09-17T06:58:17.727Z,99.99
2016-09-17T06:59:17.725Z,99.99
2016-09-17T07:00:17.731Z,99.99
2016-09-17T07:01:17.686Z,99.99
2016-09-17T07:02:17.651Z,99.99
2016-09-17T07:03:17.724Z,99.99
2016-09-17T07:04:17.655Z,99.99
2016-09-17T07:05:17.703Z,99.99
2016-09-17T07:06:17.738Z,99.99
2016-09-17T07:07:17.706Z,99.99
2016-09-17T07:08:17.749Z,99.99
2016-09-17T07:09:17.745Z,99.99
2016-09-17T07:10:17.750Z,99.99
2016-09-17T07:11:17.767Z,99.99
2016-09-17T07:12:17.766Z,99.99
2016-09-17T07:13:17.754Z,99.99
2016-09-17T07:14:17.761Z,99.99
2016-09-17T07:15:17.718Z,99.99
2016-09-17T07:16:17.761Z,99.99
2016-09-17T07:17:17.707Z,99.99
2016-09-17T07:18:17.695Z,99.99
2016-09-17T07:19:17.785Z,99.99
2016-09-17T07:20:17.697Z,99.99
2016-09-17T07:21:17.790Z,99.99
2016-09-17T07:22:17.749Z,99.99
2016-09-17T07:23:17.788Z,99.99
2016-09-17T07:24:17.747Z,99.99
2016-09-17T07:25:17.797Z,99.99
2016-09-17T07:26:17.804Z,99.99
2016-09-17T07:27:17.722Z,99.99
2016-09-17T07:28:17.804Z,99.99
2016-09-17T07:29:17.801Z,99.99
2016-09-17T07:30:17.801Z,99.99
2016-09-17T07:31:17.804Z,99.99
2016-09-17T07:32:17.815Z,99.99
2016-09-17T07:33:17.842Z,99.99
2016-09-17T07:34:17.767Z,99.99
2016-09-17T07:35:17.780Z,99.99
2016-09-17T07:36:17.839Z,99.99
2016-09-17T07:37:17.801Z,99.99
2016-09-17T07:38:17.763Z,99.99
2016-09-17T07:39:17.841Z,99.99
2016-09-17T07:40:17.831Z,99.99
2016-09-17T07:41:17.798Z,99.99
2016-09-17T07:42:17.832Z,99.99
2016-09-17T07:43:17.839Z,99.99
2016-09-17T07:44:17.810Z,99.99
2016-09-17T07:45:17.774Z,99.99
2016-09-17T07:46:17.861Z,99.99
2016-09-17T07:47:17.851Z,99.99
2016-09-17T07:48:17.862Z,99.99
2016-09-17T07:49:17.863Z,99.99
2016-09-17T07:50:17.783Z,99.99
2016-09-17T07:51:17.880Z,99.99
2016-09-17T07:52:17.862Z,99.99
2016-09-17T07:53:17.841Z,99.99
2016-09-17T07:54:17.800Z,99.99
2016-09-17T07:55:17.885Z,99.99
2016-09-17T07:56:17.889Z,99.99
2016-09-17T07:57:17.888Z,99.99
2016-09-17T07:58:17.821Z,99.99
2016-09-17T07:59:17.889Z,99.99
2016-09-17T08:00:17.858Z,99.99
2016-09-17T08:01:17.890Z,99.99
2016-09-17T08:02:17.856Z,99.99
2016-09-17T08:03:17.829Z,99.99
2016-09-17T08:04:17.832Z,99.99
2016-09-17T08:05:17.905Z,99.99
2016-09-17T08:06:17.907Z,99.99
2016-09-17T08:07:17.920Z,99.99
2016-09-17T08:08:17.844Z,99.99
2016-09-17T08:09:17.840Z,99.99
2016-09-17T08:10:17.847Z,99.99
2016-09-17T08:11:17.859Z,99.99
2016-09-17T08:12:17.914Z,99.99
2016-09-17T08:13:17.929Z,99.99
2016-09-17T08:14:17.881Z,99.99
2016-09-17T08:15:17.939Z,99.99
2016-09-17T08:16:17.938Z,99.99
2016-09-17T08:17:17.873Z,99.99
2016-09-17T08:18:17.967Z,99.99
2016-09-17T08:19:17.943Z,99.99
2016-09-17T08:20:17.913Z,99.99
2016-09-17T08:21:17.920Z,99.99
2016-09-17T08:22:17.969Z,99.99
2016-09-17T08:23:17.962Z,99.99
2016-09-17T08:24:17.959Z,99.99
2016-09-17T08:25:17.891Z,99.99
2016-09-17T08:26:17.886Z,99.99
2016-09-17T08:27:17.896Z,99.99
2016-09-17T08:28:17.973Z,99.99
2016-09-17T08:29:17.980Z,99.99
2016-09-17T08:30:17.910Z,99.99
2016-09-17T08:31:17.977Z,99.99
2016-09-17T08:32:17.997Z,99.99
2016-09-17T08:33:17.993Z,99.99
2016-09-17T08:34:17.957Z,99.99
2016-09-17T08:35:17.954Z,99.99
2016-09-17T08:36:17.951Z,99.99
2016-09-17T08:37:17.920Z,99.99
2016-09-17T08:38:17.972Z,99.99
2016-09-17T08:39:18.017Z,99.99
2016-09-17T08:40:17.970Z,99.99
2016-09-17T08:41:18.025Z,99.99
2016-09-17T08:42:18.023Z,99.99
2016-09-17T08:43:17.971Z,99.99
2016-09-17T08:44:18.010Z,99.99
2016-09-17T08:45:17.952Z,99.99
2016-09-17T08:46:18.026Z,99.99
2016-09-17T08:47:17.963Z,99.99
2016-09-17T08:48:18.051Z,99.99
2016-09-17T08:49:18.029Z,99.99
2016-09-17T08:50:18.040Z,99.99
2016-09-17T08:51:18.043Z,99.99
2016-09-17T08:52:18.062Z,99.99
2016-09-17T08:53:18.040Z,99.99
2016-09-17T08:54:18.067Z,99.99
2016-09-17T08:55:17.989Z,99.99
2016-09-17T08:56:18.061Z,99.99
2016-09-17T08:57:18.024Z,99.99
2016-09-17T08:58:18.068Z,99.99
2016-09-17T08:59:18.304Z,99.99
2016-09-17T09:00:18.072Z,99.99
2016-09-17T09:01:18.082Z,99.99
2016-09-17T09:02:18.091Z,99.99
2016-09-17T09:03:18.085Z,99.99
2016-09-17T09:04:18.735Z,99.99
2016-09-17T09:05:18.082Z,99.99
2016-09-17T09:06:18.045Z,99.99
2016-09-17T09:07:18.079Z,99.99
2016-09-17T09:08:18.103Z,99.99
2016-09-17T09:09:18.088Z,99.99
2016-09-17T09:10:18.026Z,99.99
2016-09-17T09:11:18.094Z,99.99
2016-09-17T09:12:18.064Z,99.99
2016-09-17T09:13:18.031Z,99.99
2016-09-17T09:14:18.110Z,99.99
2016-09-17T09:15:18.076Z,99.99
2016-09-17T09:16:18.110Z,99.99
2016-09-17T09:17:18.082Z,99.99
2016-09-17T09:18:18.086Z,99.99
2016-09-17T09:19:18.084Z,99.99
2016-09-17T09:20:18.119Z,99.99
2016-09-17T09:21:18.051Z,99.99
2016-09-17T09:22:18.131Z,99.99
2016-09-17T09:23:18.144Z,99.99
2016-09-17T09:24:18.150Z,99.99
2016-09-17T09:25:18.090Z,99.99
2016-09-17T09:26:18.068Z,99.99
2016-09-17T09:27:18.155Z,99.99
2016-09-17T09:28:18.147Z,99.99
2016-09-17T09:29:18.149Z,99.99
2016-09-17T09:30:18.160Z,99.99
2016-09-17T09:31:18.169Z,99.99
2016-09-17T09:32:18.127Z,99.99
2016-09-17T09:33:18.185Z,99.99
2016-09-17T09:34:18.168Z,99.99
2016-09-17T09:35:18.192Z,99.99
2016-09-17T09:36:18.106Z,99.99
2016-09-17T09:37:18.197Z,99.99
2016-09-17T09:38:18.205Z,99.99
2016-09-17T09:39:18.207Z,99.99
2016-09-17T09:40:18.222Z,99.99
2016-09-17T09:41:20.116Z,99.99
2016-09-17T09:42:18.188Z,99.99
2016-09-17T09:43:18.128Z,99.99
2016-09-17T09:44:18.126Z,99.99
2016-09-17T09:45:18.207Z,99.99
2016-09-17T09:46:18.165Z,99.99
2016-09-17T09:47:18.124Z,99.99
2016-09-17T09:48:18.410Z,99.99
2016-09-17T09:49:18.186Z,99.99
2016-09-17T09:50:18.142Z,99.99
2016-09-17T09:51:18.135Z,99.99
2016-09-17T09:52:18.258Z,99.99
2016-09-17T09:53:18.155Z,99.99
2016-09-17T09:54:18.159Z,99.99
2016-09-17T09:55:18.182Z,99.99
2016-09-17T09:56:18.185Z,99.99
2016-09-17T09:57:18.155Z,99.99
2016-09-17T09:58:18.298Z,99.99
2016-09-17T09:59:18.243Z,99.99
2016-09-17T10:00:18.246Z,99.99
2016-09-17T10:01:18.459Z,99.99
2016-09-17T10:02:18.214Z,99.99
2016-09-17T10:03:18.254Z,99.99
2016-09-17T10:04:18.175Z,99.99
2016-09-17T10:05:18.222Z,99.99
2016-09-17T10:06:18.308Z,99.99
2016-09-17T10:07:18.193Z,99.99
2016-09-17T10:08:18.268Z,99.99
2016-09-17T10:09:18.281Z,99.99
2016-09-17T10:10:18.243Z,99.99
2016-09-17T10:11:18.280Z,99.99
2016-09-17T10:12:18.288Z,99.99
2016-09-17T10:13:18.222Z,99.99
2016-09-17T10:14:18.249Z,99.99
2016-09-17T10:15:18.281Z,99.99
2016-09-17T10:16:18.296Z,99.99
2016-09-17T10:17:18.211Z,99.99
2016-09-17T10:18:19.302Z,99.99
2016-09-17T10:19:18.241Z,99.99
2016-09-17T10:20:18.323Z,99.99
2016-09-17T10:21:18.306Z,99.98
2016-09-17T10:22:18.304Z,99.99
2016-09-17T10:23:18.268Z,99.99
2016-09-17T10:24:18.307Z,99.99
2016-09-17T10:25:18.277Z,99.59
2016-09-17T10:26:18.248Z,99.73
2016-09-17T10:27:18.280Z,99.4
2016-09-17T10:28:18.315Z,99.06
2016-09-17T10:29:18.319Z,99.4
2016-09-17T10:30:18.258Z,98.87
2016-09-17T10:31:18.329Z,98.77
2016-09-17T10:32:18.337Z,99.49
2016-09-17T10:33:18.297Z,99.73
2016-09-17T10:34:18.319Z,99.83
2016-09-17T10:35:18.348Z,99.99
2016-09-17T10:36:18.349Z,99.99
2016-09-17T10:37:18.374Z,99.73
2016-09-17T10:38:18.362Z,99.83
2016-09-17T10:39:18.349Z,99.06
2016-09-17T10:40:18.323Z,99.35
2016-09-17T10:41:18.324Z,99.73
2016-09-17T10:42:18.307Z,99.44
2016-09-17T10:43:18.376Z,98.1
2016-09-17T10:44:18.307Z,98.24
2016-09-17T10:45:18.385Z,97.86
2016-09-17T10:46:18.379Z,97.47
2016-09-17T10:47:18.354Z,98.34
2016-09-17T10:48:18.389Z,99.11
2016-09-17T10:49:18.381Z,98.91
2016-09-17T10:50:18.323Z,99.21
2016-09-17T10:51:18.408Z,98.39
2016-09-17T10:52:18.389Z,97.62
2016-09-17T10:53:18.318Z,97.14
2016-09-17T10:54:18.393Z,97.86
2016-09-17T10:55:18.321Z,97.76
2016-09-17T10:56:18.369Z,97.28
2016-09-17T10:57:18.417Z,97.09
2016-09-17T10:58:18.339Z,97.28
2016-09-17T10:59:18.425Z,96.7
2016-09-17T11:00:18.417Z,96.75
2016-09-17T11:01:18.413Z,96.42
2016-09-17T11:02:18.381Z,96.61
2016-09-17T11:03:18.430Z,95.84
2016-09-17T11:04:18.395Z,96.7
2016-09-17T11:05:18.443Z,96.89
2016-09-17T11:06:18.404Z,97.14
2016-09-17T11:07:18.453Z,96.75
2016-09-17T11:08:18.459Z,95.21
2016-09-17T11:09:18.444Z,95.4
2016-09-17T11:10:18.449Z,95.6
2016-09-17T11:11:18.450Z,96.08
2016-09-17T11:12:18.454Z,96.32
2016-09-17T11:13:18.386Z,96.51
2016-09-17T11:14:18.460Z,96.99
2016-09-17T11:15:18.385Z,96.8
2016-09-17T11:16:18.434Z,97.19
2016-09-17T11:17:18.398Z,98.05
2016-09-17T11:18:18.475Z,98.14
2016-09-17T11:19:18.429Z,99.35
2016-09-17T11:20:18.472Z,98.44
2016-09-17T11:21:18.484Z,98.63
2016-09-17T11:22:18.431Z,98.44
2016-09-17T11:23:18.489Z,99.3
2016-09-17T11:24:18.447Z,99.4
2016-09-17T11:25:18.510Z,99.88
2016-09-17T11:26:18.493Z,99.99
2016-09-17T11:27:18.426Z,99.99
2016-09-17T11:28:18.456Z,99.59
2016-09-17T11:29:18.500Z,99.99
2016-09-17T11:30:18.423Z,99.99
2016-09-17T11:31:18.509Z,99.69
2016-09-17T11:32:18.510Z,99.99
2016-09-17T11:33:18.440Z,99.99
2016-09-17T11:34:18.444Z,99.99
2016-09-17T11:35:18.442Z,99.99
2016-09-17T11:36:18.529Z,99.99
2016-09-17T11:37:18.537Z,99.99
2016-09-17T11:38:18.534Z,99.88
2016-09-17T11:39:18.540Z,99.88
2016-09-17T11:40:18.491Z,99.11
2016-09-17T11:41:18.547Z,98.82
2016-09-17T11:42:18.502Z,99.11
2016-09-17T11:43:18.543Z,99.11
2016-09-17T11:44:18.539Z,98.72
2016-09-17T11:45:18.541Z,98.54
2016-09-17T11:46:18.544Z,98.82
2016-09-17T11:47:18.474Z,98.82
2016-09-17T11:48:18.561Z,98.92
2016-09-17T11:49:18.513Z,98.92
2016-09-17T11:50:18.562Z,99.4
2016-09-17T11:51:18.561Z,99.98
2016-09-17T11:52:18.535Z,99.88
2016-09-17T11:53:18.573Z,99.78
2016-09-17T11:54:18.573Z,99.99
2016-09-17T11:55:18.519Z,99.78
2016-09-17T11:56:18.537Z,98.92
2016-09-17T11:57:18.512Z,99.3
2016-09-17T11:58:18.516Z,99.3
2016-09-17T11:59:18.600Z,99.4
2016-09-17T12:00:18.561Z,99.59
2016-09-17T12:01:18.624Z,99.21
2016-09-17T12:02:18.565Z,98.92
2016-09-17T12:03:18.606Z,98.82
2016-09-17T12:04:18.527Z,98.44
2016-09-17T12:05:18.602Z,98.49
2016-09-17T12:06:18.608Z,98.58
2016-09-17T12:07:18.609Z,98.29
2016-09-17T12:08:18.609Z,98.58
2016-09-17T12:09:18.825Z,98.39
2016-09-17T12:10:18.555Z,98.54
2016-09-17T12:11:19.016Z,98.77
2016-09-17T12:12:18.590Z,98.63
2016-09-17T12:13:18.583Z,98.68
2016-09-17T12:14:18.558Z,98.72
2016-09-17T12:15:18.629Z,98.92
2016-09-17T12:16:18.557Z,98.29
2016-09-17T12:17:18.643Z,98.39
2016-09-17T12:18:18.609Z,98.1
2016-09-17T12:19:18.644Z,97.33
2016-09-17T12:20:18.581Z,98.1
2016-09-17T12:21:18.614Z,97.81
2016-09-17T12:22:18.680Z,97.72
2016-09-17T12:23:18.613Z,97.24
2016-09-17T12:24:18.651Z,97.52
2016-09-17T12:25:18.672Z,97.62
2016-09-17T12:26:18.671Z,98.1
2016-09-17T12:27:18.637Z,97.72
2016-09-17T12:28:18.666Z,97.91
2016-09-17T12:29:18.592Z,97.14
2016-09-17T12:30:18.610Z,97.33
2016-09-17T12:31:18.688Z,97.42
2016-09-17T12:32:18.598Z,97.67
2016-09-17T12:33:18.607Z,98.05
2016-09-17T12:34:18.695Z,99.11
2016-09-17T12:35:18.698Z,99.59
2016-09-17T12:36:18.683Z,99.26
2016-09-17T12:37:18.702Z,99.06
2016-09-17T12:38:18.624Z,99.35
2016-09-17T12:39:18.706Z,99.64
2016-09-17T12:40:18.629Z,99.64
2016-09-17T12:41:18.712Z,99.99
2016-09-17T12:42:18.716Z,99.83
2016-09-17T12:43:18.721Z,99.11
2016-09-17T12:44:18.689Z,99.49
2016-09-17T12:45:18.724Z,99.11
2016-09-17T12:46:18.714Z,99.78
2016-09-17T12:47:18.730Z,99.99
2016-09-17T12:48:18.707Z,99.99
2016-09-17T12:49:18.775Z,99.99
2016-09-17T12:50:18.690Z,99.99
2016-09-17T12:51:18.734Z,99.99
2016-09-17T12:52:18.741Z,99.99
2016-09-17T12:53:18.742Z,99.99